Sheffield, Vermont
Current Conditions -  °F | °C
As of 7:35 AM on Saturday 25 Oct 2014 (Local Time) from KCDA Reporting Station
Haze Haze  
Wind Chill: 32°   Ceiling: Unl
Heat Index: 32°   Visibility: 5mi
Dew Point: 30°   Wind: 0mph
Humidity: 93%   Direction: NA
Pressure: 29.77"   Gusts: NA
Location:  44.6°N, 72.11°W
Report Text: KCDA 251135Z AUTO 00000KT 5SM BR CLR 00/M01 A2977 RMK AO2 T10021012
Loading
Personal Weather Stations






























Interactive Weather Map
Tropical Storm Tracking
New forecast layout! Learn more

10-Day Weather Forecast

Advertisements
Track Severe Weather on mobile